sensor_id;sensor_type;location;lat;lon;timestamp;temperature;humidity
2158;DHT22;41972;48.774;9.282;2024-01-11T00:02:22;-6.00;99.90
2158;DHT22;41972;48.774;9.282;2024-01-11T00:04:47;-5.90;99.90
2158;DHT22;41972;48.774;9.282;2024-01-11T00:07:13;-5.90;99.90
2158;DHT22;41972;48.774;9.282;2024-01-11T00:09:40;-5.70;99.90
2158;DHT22;41972;48.774;9.282;2024-01-11T00:12:06;-5.90;99.90
2158;DHT22;41972;48.774;9.282;2024-01-11T00:14:32;-6.20;99.90
2158;DHT22;41972;48.774;9.282;2024-01-11T00:16:57;-6.00;99.90
2158;DHT22;41972;48.774;9.282;2024-01-11T00:19:23;-6.00;99.90
2158;DHT22;41972;48.774;9.282;2024-01-11T00:21:48;-6.10;99.90
2158;DHT22;41972;48.774;9.282;2024-01-11T00:24:14;-6.10;99.90
2158;DHT22;41972;48.774;9.282;2024-01-11T00:26:39;-5.90;99.90
2158;DHT22;41972;48.774;9.282;2024-01-11T00:29:05;-6.00;99.90
2158;DHT22;41972;48.774;9.282;2024-01-11T00:31:30;-5.90;99.90
2158;DHT22;41972;48.774;9.282;2024-01-11T00:33:56;-5.90;99.90
2158;DHT22;41972;48.774;9.282;2024-01-11T00:36:21;-5.90;99.90
2158;DHT22;41972;48.774;9.282;2024-01-11T00:38:47;-6.10;99.90
2158;DHT22;41972;48.774;9.282;2024-01-11T00:41:12;-6.20;99.90
2158;DHT22;41972;48.774;9.282;2024-01-11T00:43:38;-6.10;99.90
2158;DHT22;41972;48.774;9.282;2024-01-11T00:46:03;-5.90;99.90
2158;DHT22;41972;48.774;9.282;2024-01-11T00:48:29;-6.00;99.90
2158;DHT22;41972;48.774;9.282;2024-01-11T00:50:54;-6.10;99.90
2158;DHT22;41972;48.774;9.282;2024-01-11T00:53:20;-6.20;99.90
2158;DHT22;41972;48.774;9.282;2024-01-11T00:55:45;-6.20;99.90
2158;DHT22;41972;48.774;9.282;2024-01-11T00:58:11;-6.20;99.90
2158;DHT22;41972;48.774;9.282;2024-01-11T01:00:36;-6.10;99.90
2158;DHT22;41972;48.774;9.282;2024-01-11T01:03:02;-6.10;99.90
2158;DHT22;41972;48.774;9.282;2024-01-11T01:05:28;-6.10;99.90
2158;DHT22;41972;48.774;9.282;2024-01-11T01:07:54;-6.10;99.90
2158;DHT22;41972;48.774;9.282;2024-01-11T01:10:19;-6.30;99.90
2158;DHT22;41972;48.774;9.282;2024-01-11T01:12:45;-6.40;99.90
2158;DHT22;41972;48.774;9.282;2024-01-11T01:15:10;-6.40;99.90
2158;DHT22;41972;48.774;9.282;2024-01-11T01:17:36;-6.30;99.90
2158;DHT22;41972;48.774;9.282;2024-01-11T01:20:02;-6.20;99.90
2158;DHT22;41972;48.774;9.282;2024-01-11T01:22:28;-6.30;99.90
2158;DHT22;41972;48.774;9.282;2024-01-11T01:24:54;-6.30;99.90
2158;DHT22;41972;48.774;9.282;2024-01-11T01:27:20;-6.30;99.90
2158;DHT22;41972;48.774;9.282;2024-01-11T01:29:46;-6.40;99.90
2158;DHT22;41972;48.774;9.282;2024-01-11T01:32:11;-6.30;99.90
2158;DHT22;41972;48.774;9.282;2024-01-11T01:34:37;-6.30;99.90
2158;DHT22;41972;48.774;9.282;2024-01-11T01:37:02;-6.20;99.90
2158;DHT22;41972;48.774;9.282;2024-01-11T01:39:28;-6.30;99.90
2158;DHT22;41972;48.774;9.282;2024-01-11T01:41:53;-6.30;99.90
2158;DHT22;41972;48.774;9.282;2024-01-11T01:44:19;-6.40;99.90
2158;DHT22;41972;48.774;9.282;2024-01-11T01:46:44;-6.40;99.90
2158;DHT22;41972;48.774;9.282;2024-01-11T01:49:10;-6.30;99.90
2158;DHT22;41972;48.774;9.282;2024-01-11T01:51:37;-6.20;99.90
2158;DHT22;41972;48.774;9.282;2024-01-11T01:54:03;-6.30;99.90
2158;DHT22;41972;48.774;9.282;2024-01-11T01:56:29;-6.30;99.90
2158;DHT22;41972;48.774;9.282;2024-01-11T01:58:55;-6.30;99.90
2158;DHT22;41972;48.774;9.282;2024-01-11T02:01:22;-5.90;99.90
2158;DHT22;41972;48.774;9.282;2024-01-11T02:03:50;-6.30;99.90
2158;DHT22;41972;48.774;9.282;2024-01-11T02:06:17;-6.30;99.90
2158;DHT22;41972;48.774;9.282;2024-01-11T02:08:44;-6.20;99.90
2158;DHT22;41972;48.774;9.282;2024-01-11T02:11:11;-6.20;99.90
2158;DHT22;41972;48.774;9.282;2024-01-11T02:13:37;-6.30;99.90
2158;DHT22;41972;48.774;9.282;2024-01-11T02:16:03;-6.30;99.90
2158;DHT22;41972;48.774;9.282;2024-01-11T02:18:29;-6.20;99.90
2158;DHT22;41972;48.774;9.282;2024-01-11T02:20:55;-6.10;99.90
2158;DHT22;41972;48.774;9.282;2024-01-11T02:23:21;-6.00;99.90
2158;DHT22;41972;48.774;9.282;2024-01-11T02:25:49;-6.20;99.90
2158;DHT22;41972;48.774;9.282;2024-01-11T02:28:15;-6.20;99.90
2158;DHT22;41972;48.774;9.282;2024-01-11T02:30:40;-6.40;99.90
2158;DHT22;41972;48.774;9.282;2024-01-11T02:33:06;-6.50;99.90
2158;DHT22;41972;48.774;9.282;2024-01-11T02:35:33;-6.30;99.90
2158;DHT22;41972;48.774;9.282;2024-01-11T02:37:59;-6.30;99.90
2158;DHT22;41972;48.774;9.282;2024-01-11T02:40:26;-6.50;99.90
2158;DHT22;41972;48.774;9.282;2024-01-11T02:42:51;-6.40;99.90
2158;DHT22;41972;48.774;9.282;2024-01-11T02:45:17;-6.50;99.90
2158;DHT22;41972;48.774;9.282;2024-01-11T02:47:44;-6.50;99.90
2158;DHT22;41972;48.774;9.282;2024-01-11T02:50:10;-6.70;99.90
2158;DHT22;41972;48.774;9.282;2024-01-11T02:52:37;-6.70;99.90
2158;DHT22;41972;48.774;9.282;2024-01-11T02:55:03;-6.60;99.90
2158;DHT22;41972;48.774;9.282;2024-01-11T02:57:28;-6.50;99.90
2158;DHT22;41972;48.774;9.282;2024-01-11T02:59:54;-6.70;99.90
2158;DHT22;41972;48.774;9.282;2024-01-11T03:02:20;-6.80;99.90
2158;DHT22;41972;48.774;9.282;2024-01-11T03:04:45;-6.90;99.90
2158;DHT22;41972;48.774;9.282;2024-01-11T03:07:11;-6.80;99.90
2158;DHT22;41972;48.774;9.282;2024-01-11T03:09:37;-6.70;99.90
2158;DHT22;41972;48.774;9.282;2024-01-11T03:12:03;-6.60;99.90
2158;DHT22;41972;48.774;9.282;2024-01-11T03:14:29;-6.70;99.90
2158;DHT22;41972;48.774;9.282;2024-01-11T03:16:54;-6.90;99.90
2158;DHT22;41972;48.774;9.282;2024-01-11T03:19:20;-7.00;99.90
2158;DHT22;41972;48.774;9.282;2024-01-11T03:21:46;-6.70;99.90
2158;DHT22;41972;48.774;9.282;2024-01-11T03:24:12;-6.80;99.90
2158;DHT22;41972;48.774;9.282;2024-01-11T03:26:38;-6.80;99.90
2158;DHT22;41972;48.774;9.282;2024-01-11T03:29:05;-6.90;99.90
2158;DHT22;41972;48.774;9.282;2024-01-11T03:31:30;-6.90;99.90
2158;DHT22;41972;48.774;9.282;2024-01-11T03:33:56;-6.90;99.90
2158;DHT22;41972;48.774;9.282;2024-01-11T03:36:24;-6.80;99.90
2158;DHT22;41972;48.774;9.282;2024-01-11T03:38:50;-6.90;99.90
2158;DHT22;41972;48.774;9.282;2024-01-11T03:41:16;-6.90;99.90
2158;DHT22;41972;48.774;9.282;2024-01-11T03:43:41;-7.00;99.90
2158;DHT22;41972;48.774;9.282;2024-01-11T03:46:07;-6.90;99.90
2158;DHT22;41972;48.774;9.282;2024-01-11T03:48:32;-6.90;99.90
2158;DHT22;41972;48.774;9.282;2024-01-11T03:50:58;-7.00;99.90
2158;DHT22;41972;48.774;9.282;2024-01-11T03:53:24;-7.00;99.90
2158;DHT22;41972;48.774;9.282;2024-01-11T03:55:50;-7.10;99.90
2158;DHT22;41972;48.774;9.282;2024-01-11T03:58:15;-7.10;99.90
2158;DHT22;41972;48.774;9.282;2024-01-11T04:00:41;-7.00;99.90
2158;DHT22;41972;48.774;9.282;2024-01-11T04:03:07;-6.90;99.90
2158;DHT22;41972;48.774;9.282;2024-01-11T04:05:32;-7.00;99.90
2158;DHT22;41972;48.774;9.282;2024-01-11T04:07:58;-7.20;99.90
2158;DHT22;41972;48.774;9.282;2024-01-11T04:10:23;-7.20;99.90
2158;DHT22;41972;48.774;9.282;2024-01-11T04:12:49;-7.20;99.90
2158;DHT22;41972;48.774;9.282;2024-01-11T04:15:15;-7.20;99.90
2158;DHT22;41972;48.774;9.282;2024-01-11T04:17:41;-7.20;99.90
2158;DHT22;41972;48.774;9.282;2024-01-11T04:20:07;-7.00;99.90
2158;DHT22;41972;48.774;9.282;2024-01-11T04:22:33;-7.10;99.90
2158;DHT22;41972;48.774;9.282;2024-01-11T04:24:59;-7.00;99.90
2158;DHT22;41972;48.774;9.282;2024-01-11T04:27:25;-7.00;99.90
2158;DHT22;41972;48.774;9.282;2024-01-11T04:29:51;-7.10;99.90
2158;DHT22;41972;48.774;9.282;2024-01-11T04:32:16;-7.10;99.90
2158;DHT22;41972;48.774;9.282;2024-01-11T04:34:42;-7.10;99.90
2158;DHT22;41972;48.774;9.282;2024-01-11T04:37:08;-7.10;99.90
2158;DHT22;41972;48.774;9.282;2024-01-11T04:39:33;-7.10;99.90
2158;DHT22;41972;48.774;9.282;2024-01-11T04:41:59;-7.10;99.90
2158;DHT22;41972;48.774;9.282;2024-01-11T04:44:26;-7.00;99.90
2158;DHT22;41972;48.774;9.282;2024-01-11T04:46:51;-6.90;99.90
2158;DHT22;41972;48.774;9.282;2024-01-11T04:49:17;-7.00;99.90
2158;DHT22;41972;48.774;9.282;2024-01-11T04:51:42;-7.20;99.90
2158;DHT22;41972;48.774;9.282;2024-01-11T04:54:08;-7.20;99.90
2158;DHT22;41972;48.774;9.282;2024-01-11T04:56:34;-7.10;99.90
2158;DHT22;41972;48.774;9.282;2024-01-11T04:58:59;-7.00;99.90
2158;DHT22;41972;48.774;9.282;2024-01-11T05:01:25;-7.10;99.90
2158;DHT22;41972;48.774;9.282;2024-01-11T05:03:50;-7.00;99.90
2158;DHT22;41972;48.774;9.282;2024-01-11T05:06:17;-7.00;99.90
2158;DHT22;41972;48.774;9.282;2024-01-11T05:08:46;-7.10;99.90
2158;DHT22;41972;48.774;9.282;2024-01-11T05:11:30;-7.10;99.90
2158;DHT22;41972;48.774;9.282;2024-01-11T05:13:55;-7.20;99.90
2158;DHT22;41972;48.774;9.282;2024-01-11T05:16:26;-7.10;99.90
2158;DHT22;41972;48.774;9.282;2024-01-11T05:18:53;-7.10;99.90
2158;DHT22;41972;48.774;9.282;2024-01-11T05:21:19;-6.90;99.90
2158;DHT22;41972;48.774;9.282;2024-01-11T05:23:45;-7.00;99.90
2158;DHT22;41972;48.774;9.282;2024-01-11T05:26:13;-7.00;99.90
2158;DHT22;41972;48.774;9.282;2024-01-11T05:28:38;-6.90;99.90
2158;DHT22;41972;48.774;9.282;2024-01-11T05:31:14;-7.10;99.90
2158;DHT22;41972;48.774;9.282;2024-01-11T05:33:40;-7.10;99.90
2158;DHT22;41972;48.774;9.282;2024-01-11T05:36:06;-7.10;99.90
2158;DHT22;41972;48.774;9.282;2024-01-11T05:38:32;-7.10;99.90
2158;DHT22;41972;48.774;9.282;2024-01-11T05:40:58;-7.10;99.90
2158;DHT22;41972;48.774;9.282;2024-01-11T05:43:23;-7.10;99.90
2158;DHT22;41972;48.774;9.282;2024-01-11T05:45:49;-7.10;99.90
2158;DHT22;41972;48.774;9.282;2024-01-11T05:48:15;-7.20;99.90
2158;DHT22;41972;48.774;9.282;2024-01-11T05:50:42;-7.20;99.90
2158;DHT22;41972;48.774;9.282;2024-01-11T05:53:07;-7.30;99.90
2158;DHT22;41972;48.774;9.282;2024-01-11T05:55:33;-7.20;99.90
2158;DHT22;41972;48.774;9.282;2024-01-11T05:57:58;-7.20;99.90
2158;DHT22;41972;48.774;9.282;2024-01-11T06:00:24;-7.10;99.90
2158;DHT22;41972;48.774;9.282;2024-01-11T06:02:50;-7.10;99.90
2158;DHT22;41972;48.774;9.282;2024-01-11T06:05:16;-7.00;99.90
2158;DHT22;41972;48.774;9.282;2024-01-11T06:07:41;-7.00;99.90
2158;DHT22;41972;48.774;9.282;2024-01-11T06:10:07;-7.10;99.90
2158;DHT22;41972;48.774;9.282;2024-01-11T06:12:34;-7.40;99.90
2158;DHT22;41972;48.774;9.282;2024-01-11T06:15:00;-7.50;99.90
2158;DHT22;41972;48.774;9.282;2024-01-11T06:17:26;-7.40;99.90
2158;DHT22;41972;48.774;9.282;2024-01-11T06:19:52;-7.40;99.90
2158;DHT22;41972;48.774;9.282;2024-01-11T06:22:17;-7.40;99.90
2158;DHT22;41972;48.774;9.282;2024-01-11T06:24:43;-7.30;99.90
2158;DHT22;41972;48.774;9.282;2024-01-11T06:27:09;-7.30;99.90
2158;DHT22;41972;48.774;9.282;2024-01-11T06:29:35;-7.40;99.90
2158;DHT22;41972;48.774;9.282;2024-01-11T06:32:00;-7.50;99.90
2158;DHT22;41972;48.774;9.282;2024-01-11T06:34:26;-7.40;99.90
2158;DHT22;41972;48.774;9.282;2024-01-11T06:36:53;-7.40;99.90
2158;DHT22;41972;48.774;9.282;2024-01-11T06:39:19;-7.50;99.90
2158;DHT22;41972;48.774;9.282;2024-01-11T06:41:44;-7.60;99.90
2158;DHT22;41972;48.774;9.282;2024-01-11T06:44:10;-7.60;99.90
2158;DHT22;41972;48.774;9.282;2024-01-11T06:46:35;-7.50;99.90
2158;DHT22;41972;48.774;9.282;2024-01-11T06:49:01;-7.40;99.90
2158;DHT22;41972;48.774;9.282;2024-01-11T06:51:27;-7.50;99.90
2158;DHT22;41972;48.774;9.282;2024-01-11T06:53:53;-7.60;99.90
2158;DHT22;41972;48.774;9.282;2024-01-11T06:56:19;-7.60;99.90
2158;DHT22;41972;48.774;9.282;2024-01-11T06:58:46;-7.40;99.90
2158;DHT22;41972;48.774;9.282;2024-01-11T07:01:12;-7.40;99.90
2158;DHT22;41972;48.774;9.282;2024-01-11T07:03:38;-7.50;99.90
2158;DHT22;41972;48.774;9.282;2024-01-11T07:06:04;-7.70;99.90
2158;DHT22;41972;48.774;9.282;2024-01-11T07:08:30;-7.60;99.90
2158;DHT22;41972;48.774;9.282;2024-01-11T07:10:56;-7.60;99.90
2158;DHT22;41972;48.774;9.282;2024-01-11T07:13:22;-7.50;99.90
2158;DHT22;41972;48.774;9.282;2024-01-11T07:15:48;-7.40;99.90
2158;DHT22;41972;48.774;9.282;2024-01-11T07:18:14;-7.50;99.90
2158;DHT22;41972;48.774;9.282;2024-01-11T07:20:40;-7.50;99.90
2158;DHT22;41972;48.774;9.282;2024-01-11T07:23:05;-7.50;99.90
2158;DHT22;41972;48.774;9.282;2024-01-11T07:25:31;-7.40;99.90
2158;DHT22;41972;48.774;9.282;2024-01-11T07:27:57;-7.40;99.90
2158;DHT22;41972;48.774;9.282;2024-01-11T07:30:23;-7.30;99.90
2158;DHT22;41972;48.774;9.282;2024-01-11T07:32:48;-7.20;99.90
2158;DHT22;41972;48.774;9.282;2024-01-11T07:35:14;-7.10;99.90
2158;DHT22;41972;48.774;9.282;2024-01-11T07:37:40;-7.10;99.90
2158;DHT22;41972;48.774;9.282;2024-01-11T07:40:06;-6.90;99.90
2158;DHT22;41972;48.774;9.282;2024-01-11T07:42:39;-7.00;99.90
2158;DHT22;41972;48.774;9.282;2024-01-11T07:45:09;-6.80;99.90
2158;DHT22;41972;48.774;9.282;2024-01-11T07:47:39;-6.80;99.90
2158;DHT22;41972;48.774;9.282;2024-01-11T07:50:08;-6.90;99.90
2158;DHT22;41972;48.774;9.282;2024-01-11T07:52:37;-6.80;99.90
2158;DHT22;41972;48.774;9.282;2024-01-11T07:55:04;-6.70;99.90
2158;DHT22;41972;48.774;9.282;2024-01-11T07:57:36;-6.70;99.90
2158;DHT22;41972;48.774;9.282;2024-01-11T08:00:04;-7.10;99.90
2158;DHT22;41972;48.774;9.282;2024-01-11T08:02:32;-7.00;99.90
2158;DHT22;41972;48.774;9.282;2024-01-11T08:04:57;-6.80;99.90
2158;DHT22;41972;48.774;9.282;2024-01-11T08:07:25;-6.60;99.90
2158;DHT22;41972;48.774;9.282;2024-01-11T08:09:51;-6.40;99.90
2158;DHT22;41972;48.774;9.282;2024-01-11T08:12:16;-6.40;99.90
2158;DHT22;41972;48.774;9.282;2024-01-11T08:14:42;-6.50;99.90
2158;DHT22;41972;48.774;9.282;2024-01-11T08:17:08;-6.50;99.90
2158;DHT22;41972;48.774;9.282;2024-01-11T08:19:34;-6.50;99.90
2158;DHT22;41972;48.774;9.282;2024-01-11T08:22:00;-6.20;99.90
2158;DHT22;41972;48.774;9.282;2024-01-11T08:24:26;-6.10;99.90
2158;DHT22;41972;48.774;9.282;2024-01-11T08:26:52;-6.30;99.90
2158;DHT22;41972;48.774;9.282;2024-01-11T08:29:17;-6.10;99.90
2158;DHT22;41972;48.774;9.282;2024-01-11T08:31:45;-5.80;99.90
2158;DHT22;41972;48.774;9.282;2024-01-11T08:34:10;-5.60;99.90
2158;DHT22;41972;48.774;9.282;2024-01-11T08:36:36;-5.50;99.90
2158;DHT22;41972;48.774;9.282;2024-01-11T08:39:04;-5.50;99.90
2158;DHT22;41972;48.774;9.282;2024-01-11T08:41:34;-5.70;99.90
2158;DHT22;41972;48.774;9.282;2024-01-11T08:44:01;-5.80;99.90
2158;DHT22;41972;48.774;9.282;2024-01-11T08:46:27;-5.40;99.90
2158;DHT22;41972;48.774;9.282;2024-01-11T08:48:54;-5.20;99.90
2158;DHT22;41972;48.774;9.282;2024-01-11T08:51:21;-4.80;99.90
2158;DHT22;41972;48.774;9.282;2024-01-11T08:53:47;-4.50;99.90
2158;DHT22;41972;48.774;9.282;2024-01-11T08:56:12;-4.60;99.90
2158;DHT22;41972;48.774;9.282;2024-01-11T08:58:39;-4.20;99.90
2158;DHT22;41972;48.774;9.282;2024-01-11T09:01:05;-4.20;99.90
2158;DHT22;41972;48.774;9.282;2024-01-11T09:03:34;-3.30;99.90
2158;DHT22;41972;48.774;9.282;2024-01-11T09:05:59;-1.40;99.90
2158;DHT22;41972;48.774;9.282;2024-01-11T09:08:25;0.20;99.90
2158;DHT22;41972;48.774;9.282;2024-01-11T09:10:50;1.90;99.90
2158;DHT22;41972;48.774;9.282;2024-01-11T09:13:16;1.00;99.90
2158;DHT22;41972;48.774;9.282;2024-01-11T09:15:42;0.70;99.90
2158;DHT22;41972;48.774;9.282;2024-01-11T09:18:07;1.90;99.90
2158;DHT22;41972;48.774;9.282;2024-01-11T09:20:34;2.10;99.90
2158;DHT22;41972;48.774;9.282;2024-01-11T09:23:00;1.00;99.90
2158;DHT22;41972;48.774;9.282;2024-01-11T09:25:29;0.50;99.90
2158;DHT22;41972;48.774;9.282;2024-01-11T09:27:54;0.90;99.90
2158;DHT22;41972;48.774;9.282;2024-01-11T09:30:20;3.90;99.90
2158;DHT22;41972;48.774;9.282;2024-01-11T09:32:45;6.60;99.90
2158;DHT22;41972;48.774;9.282;2024-01-11T09:35:11;4.80;99.90
2158;DHT22;41972;48.774;9.282;2024-01-11T09:37:37;5.40;99.90
2158;DHT22;41972;48.774;9.282;2024-01-11T09:40:02;2.80;99.90
2158;DHT22;41972;48.774;9.282;2024-01-11T09:42:29;2.80;99.90
2158;DHT22;41972;48.774;9.282;2024-01-11T09:44:56;2.80;99.90
2158;DHT22;41972;48.774;9.282;2024-01-11T09:47:22;2.80;99.90
2158;DHT22;41972;48.774;9.282;2024-01-11T09:49:50;2.00;99.90
2158;DHT22;41972;48.774;9.282;2024-01-11T09:52:20;4.50;99.90
2158;DHT22;41972;48.774;9.282;2024-01-11T09:54:45;7.40;99.90
2158;DHT22;41972;48.774;9.282;2024-01-11T09:57:11;9.00;99.90
2158;DHT22;41972;48.774;9.282;2024-01-11T09:59:37;8.50;99.90
2158;DHT22;41972;48.774;9.282;2024-01-11T10:02:02;7.20;99.90
2158;DHT22;41972;48.774;9.282;2024-01-11T10:04:29;2.60;99.90
2158;DHT22;41972;48.774;9.282;2024-01-11T10:06:55;1.60;99.90
2158;DHT22;41972;48.774;9.282;2024-01-11T10:09:21;0.60;99.90
2158;DHT22;41972;48.774;9.282;2024-01-11T10:11:48;1.90;99.90
2158;DHT22;41972;48.774;9.282;2024-01-11T10:14:14;3.60;99.90
2158;DHT22;41972;48.774;9.282;2024-01-11T10:16:42;6.70;99.90
2158;DHT22;41972;48.774;9.282;2024-01-11T10:19:09;10.10;99.90
2158;DHT22;41972;48.774;9.282;2024-01-11T10:21:38;11.80;99.90
2158;DHT22;41972;48.774;9.282;2024-01-11T10:24:05;12.00;99.90
2158;DHT22;41972;48.774;9.282;2024-01-11T10:26:30;11.40;99.90
2158;DHT22;41972;48.774;9.282;2024-01-11T10:28:59;11.90;99.90
2158;DHT22;41972;48.774;9.282;2024-01-11T10:31:24;13.60;99.90
2158;DHT22;41972;48.774;9.282;2024-01-11T10:33:52;9.70;99.90
2158;DHT22;41972;48.774;9.282;2024-01-11T10:36:18;9.90;99.90
2158;DHT22;41972;48.774;9.282;2024-01-11T10:38:46;10.60;99.90
2158;DHT22;41972;48.774;9.282;2024-01-11T10:41:13;12.60;99.90
2158;DHT22;41972;48.774;9.282;2024-01-11T10:43:43;12.10;99.90
2158;DHT22;41972;48.774;9.282;2024-01-11T10:46:11;14.00;99.90
2158;DHT22;41972;48.774;9.282;2024-01-11T10:48:38;14.20;99.90
2158;DHT22;41972;48.774;9.282;2024-01-11T10:51:08;13.20;99.90
2158;DHT22;41972;48.774;9.282;2024-01-11T10:56:06;9.70;99.90
2158;DHT22;41972;48.774;9.282;2024-01-11T10:58:34;8.20;99.90
2158;DHT22;41972;48.774;9.282;2024-01-11T11:01:01;7.70;99.90
2158;DHT22;41972;48.774;9.282;2024-01-11T11:03:27;7.00;99.90
2158;DHT22;41972;48.774;9.282;2024-01-11T11:05:54;4.20;22.00
2158;DHT22;41972;48.774;9.282;2024-01-11T11:08:23;4.30;31.00
2158;DHT22;41972;48.774;9.282;2024-01-11T11:10:56;4.70;71.30
2158;DHT22;41972;48.774;9.282;2024-01-11T11:13:22;5.70;40.80
2158;DHT22;41972;48.774;9.282;2024-01-11T11:15:48;4.40;45.10
2158;DHT22;41972;48.774;9.282;2024-01-11T11:18:17;3.70;53.00
2158;DHT22;41972;48.774;9.282;2024-01-11T11:20:44;4.80;69.90
2158;DHT22;41972;48.774;9.282;2024-01-11T11:23:11;4.80;44.80
2158;DHT22;41972;48.774;9.282;2024-01-11T11:25:39;2.80;64.40
2158;DHT22;41972;48.774;9.282;2024-01-11T11:28:05;3.00;65.40
2158;DHT22;41972;48.774;9.282;2024-01-11T11:30:37;2.40;75.70
2158;DHT22;41972;48.774;9.282;2024-01-11T11:35:42;1.80;99.90
2158;DHT22;41972;48.774;9.282;2024-01-11T11:38:08;1.10;99.90
2158;DHT22;41972;48.774;9.282;2024-01-11T11:40:37;1.20;99.90
2158;DHT22;41972;48.774;9.282;2024-01-11T11:43:08;1.00;99.90
2158;DHT22;41972;48.774;9.282;2024-01-11T11:45:34;1.10;99.90
2158;DHT22;41972;48.774;9.282;2024-01-11T11:48:01;0.60;99.90
2158;DHT22;41972;48.774;9.282;2024-01-11T11:50:29;0.50;99.90
2158;DHT22;41972;48.774;9.282;2024-01-11T11:52:56;0.40;99.90
2158;DHT22;41972;48.774;9.282;2024-01-11T11:55:25;-0.10;99.90
2158;DHT22;41972;48.774;9.282;2024-01-11T11:57:51;0.00;99.90
2158;DHT22;41972;48.774;9.282;2024-01-11T12:00:17;-0.30;99.90
2158;DHT22;41972;48.774;9.282;2024-01-11T12:02:43;-0.20;99.90
2158;DHT22;41972;48.774;9.282;2024-01-11T12:05:08;-0.40;99.90
2158;DHT22;41972;48.774;9.282;2024-01-11T12:07:34;-0.30;99.90
2158;DHT22;41972;48.774;9.282;2024-01-11T12:10:00;-0.40;99.90
2158;DHT22;41972;48.774;9.282;2024-01-11T12:12:25;0.00;99.90
2158;DHT22;41972;48.774;9.282;2024-01-11T12:14:53;0.10;99.90
2158;DHT22;41972;48.774;9.282;2024-01-11T12:17:19;0.10;99.90
2158;DHT22;41972;48.774;9.282;2024-01-11T12:19:45;-0.10;99.90
2158;DHT22;41972;48.774;9.282;2024-01-11T12:22:10;-0.10;99.90
2158;DHT22;41972;48.774;9.282;2024-01-11T12:24:36;-0.30;99.90
2158;DHT22;41972;48.774;9.282;2024-01-11T12:27:02;-0.30;99.90
2158;DHT22;41972;48.774;9.282;2024-01-11T12:29:31;-0.30;99.90
2158;DHT22;41972;48.774;9.282;2024-01-11T12:31:57;-0.20;99.90
2158;DHT22;41972;48.774;9.282;2024-01-11T12:34:24;-0.20;99.90
2158;DHT22;41972;48.774;9.282;2024-01-11T12:36:50;-0.50;99.90
2158;DHT22;41972;48.774;9.282;2024-01-11T12:39:18;-0.30;99.90
2158;DHT22;41972;48.774;9.282;2024-01-11T12:41:44;-0.20;99.90
2158;DHT22;41972;48.774;9.282;2024-01-11T12:44:10;-0.30;99.90
2158;DHT22;41972;48.774;9.282;2024-01-11T12:46:35;-0.10;99.90
2158;DHT22;41972;48.774;9.282;2024-01-11T12:49:01;-0.10;99.90
2158;DHT22;41972;48.774;9.282;2024-01-11T12:51:26;0.10;99.90
2158;DHT22;41972;48.774;9.282;2024-01-11T12:53:52;0.00;99.90
2158;DHT22;41972;48.774;9.282;2024-01-11T12:56:19;-0.10;99.90
2158;DHT22;41972;48.774;9.282;2024-01-11T12:58:46;-0.20;99.90
2158;DHT22;41972;48.774;9.282;2024-01-11T13:01:12;-0.30;99.90
2158;DHT22;41972;48.774;9.282;2024-01-11T13:03:43;-0.20;99.90
2158;DHT22;41972;48.774;9.282;2024-01-11T13:06:09;-0.20;99.90
2158;DHT22;41972;48.774;9.282;2024-01-11T13:08:37;-0.30;99.90
2158;DHT22;41972;48.774;9.282;2024-01-11T13:11:05;-0.40;99.90
2158;DHT22;41972;48.774;9.282;2024-01-11T13:13:33;-0.20;99.90
2158;DHT22;41972;48.774;9.282;2024-01-11T13:15:58;-0.10;99.90
2158;DHT22;41972;48.774;9.282;2024-01-11T13:18:24;-0.10;99.90
2158;DHT22;41972;48.774;9.282;2024-01-11T13:20:49;-0.10;99.90
2158;DHT22;41972;48.774;9.282;2024-01-11T13:25:43;-0.30;99.90
2158;DHT22;41972;48.774;9.282;2024-01-11T13:28:09;-0.20;99.90
2158;DHT22;41972;48.774;9.282;2024-01-11T13:30:37;-0.20;99.90
2158;DHT22;41972;48.774;9.282;2024-01-11T13:33:02;-0.10;99.90
2158;DHT22;41972;48.774;9.282;2024-01-11T13:35:28;-0.10;99.90
2158;DHT22;41972;48.774;9.282;2024-01-11T13:37:54;-0.20;99.90
2158;DHT22;41972;48.774;9.282;2024-01-11T13:40:19;-0.30;99.90
2158;DHT22;41972;48.774;9.282;2024-01-11T13:42:45;-0.50;99.90
2158;DHT22;41972;48.774;9.282;2024-01-11T13:45:10;-0.40;99.90
2158;DHT22;41972;48.774;9.282;2024-01-11T13:47:36;-0.30;99.90
2158;DHT22;41972;48.774;9.282;2024-01-11T13:50:02;-0.30;99.90
2158;DHT22;41972;48.774;9.282;2024-01-11T13:52:27;-0.30;99.90
2158;DHT22;41972;48.774;9.282;2024-01-11T13:54:53;-0.30;99.90
2158;DHT22;41972;48.774;9.282;2024-01-11T13:57:18;-0.20;99.90
2158;DHT22;41972;48.774;9.282;2024-01-11T13:59:44;-0.20;99.90
2158;DHT22;41972;48.774;9.282;2024-01-11T14:02:09;-0.30;99.90
2158;DHT22;41972;48.774;9.282;2024-01-11T14:04:35;-0.30;99.90
2158;DHT22;41972;48.774;9.282;2024-01-11T14:07:01;-0.30;99.90
2158;DHT22;41972;48.774;9.282;2024-01-11T14:09:28;-0.40;99.90
2158;DHT22;41972;48.774;9.282;2024-01-11T14:11:54;-0.20;99.90
2158;DHT22;41972;48.774;9.282;2024-01-11T14:14:19;-0.30;99.90
2158;DHT22;41972;48.774;9.282;2024-01-11T14:16:46;-0.40;99.90
2158;DHT22;41972;48.774;9.282;2024-01-11T14:19:12;-0.40;99.90
2158;DHT22;41972;48.774;9.282;2024-01-11T14:21:37;-0.50;99.90
2158;DHT22;41972;48.774;9.282;2024-01-11T14:24:04;-0.40;99.90
2158;DHT22;41972;48.774;9.282;2024-01-11T14:26:31;-0.50;99.90
2158;DHT22;41972;48.774;9.282;2024-01-11T14:28:57;-0.60;99.90
2158;DHT22;41972;48.774;9.282;2024-01-11T14:31:23;-0.50;99.90
2158;DHT22;41972;48.774;9.282;2024-01-11T14:33:48;-0.50;99.90
2158;DHT22;41972;48.774;9.282;2024-01-11T14:36:15;-0.50;99.90
2158;DHT22;41972;48.774;9.282;2024-01-11T14:38:42;-0.50;99.90
2158;DHT22;41972;48.774;9.282;2024-01-11T14:41:07;-0.60;99.90
2158;DHT22;41972;48.774;9.282;2024-01-11T14:43:34;-0.70;99.90
2158;DHT22;41972;48.774;9.282;2024-01-11T14:46:00;-0.60;99.90
2158;DHT22;41972;48.774;9.282;2024-01-11T14:48:26;-0.60;99.90
2158;DHT22;41972;48.774;9.282;2024-01-11T14:50:59;-0.60;99.90
2158;DHT22;41972;48.774;9.282;2024-01-11T14:53:24;-0.70;99.90
2158;DHT22;41972;48.774;9.282;2024-01-11T14:55:50;-0.80;99.90
2158;DHT22;41972;48.774;9.282;2024-01-11T14:58:16;-0.80;99.90
2158;DHT22;41972;48.774;9.282;2024-01-11T15:00:44;-0.80;99.90
2158;DHT22;41972;48.774;9.282;2024-01-11T15:03:09;-0.80;99.90
2158;DHT22;41972;48.774;9.282;2024-01-11T15:05:35;-0.80;99.90
2158;DHT22;41972;48.774;9.282;2024-01-11T15:08:01;-0.80;99.90
2158;DHT22;41972;48.774;9.282;2024-01-11T15:10:27;-0.80;99.90
2158;DHT22;41972;48.774;9.282;2024-01-11T15:12:53;-0.90;99.90
2158;DHT22;41972;48.774;9.282;2024-01-11T15:15:18;-0.90;99.90
2158;DHT22;41972;48.774;9.282;2024-01-11T15:17:44;-0.90;99.90
2158;DHT22;41972;48.774;9.282;2024-01-11T15:20:10;-0.90;99.90
2158;DHT22;41972;48.774;9.282;2024-01-11T15:22:36;-0.90;99.90
2158;DHT22;41972;48.774;9.282;2024-01-11T15:25:01;-1.00;99.90
2158;DHT22;41972;48.774;9.282;2024-01-11T15:27:27;-1.00;99.90
2158;DHT22;41972;48.774;9.282;2024-01-11T15:29:53;-1.00;99.90
2158;DHT22;41972;48.774;9.282;2024-01-11T15:32:18;-1.10;99.90
2158;DHT22;41972;48.774;9.282;2024-01-11T15:34:44;-1.10;99.90
2158;DHT22;41972;48.774;9.282;2024-01-11T15:37:09;-1.10;99.90
2158;DHT22;41972;48.774;9.282;2024-01-11T15:39:35;-1.10;99.90
2158;DHT22;41972;48.774;9.282;2024-01-11T15:42:01;-1.20;99.90
2158;DHT22;41972;48.774;9.282;2024-01-11T15:44:28;-1.20;99.90
2158;DHT22;41972;48.774;9.282;2024-01-11T15:46:54;-1.30;99.90
2158;DHT22;41972;48.774;9.282;2024-01-11T15:49:20;-1.30;99.90